createdAt,value
2022-08-16T00:00:20.156Z,7.47
2022-08-16T00:02:51.788Z,7.63
2022-08-16T00:05:20.703Z,6.97
2022-08-16T00:07:49.942Z,7.63
2022-08-16T00:10:25.475Z,8.30
2022-08-16T00:12:55.419Z,6.90
2022-08-16T00:15:51.499Z,6.03
2022-08-16T00:18:17.324Z,5.93
2022-08-16T00:20:47.893Z,5.17
2022-08-16T00:23:19.084Z,5.13
2022-08-16T00:26:35.768Z,4.30
2022-08-16T00:28:54.931Z,4.30
2022-08-16T00:31:24.178Z,4.90
2022-08-16T00:33:52.835Z,4.77
2022-08-16T00:36:21.102Z,4.80
2022-08-16T00:38:49.285Z,3.90
2022-08-16T00:41:17.705Z,4.73
2022-08-16T00:43:47.377Z,4.53
2022-08-16T00:46:33.654Z,4.90
2022-08-16T00:49:05.075Z,4.00
2022-08-16T00:51:33.909Z,4.50
2022-08-16T00:54:02.247Z,4.17
2022-08-16T00:56:57.553Z,4.57
2022-08-16T00:59:24.257Z,4.20
2022-08-16T01:01:53.943Z,3.83
2022-08-16T01:04:29.195Z,4.00
2022-08-16T01:07:02.413Z,3.17
2022-08-16T01:09:33.679Z,4.50
2022-08-16T01:12:04.276Z,3.80
2022-08-16T01:14:39.356Z,3.40
2022-08-16T01:17:13.365Z,3.70
2022-08-16T01:19:45.812Z,4.23
2022-08-16T01:22:57.621Z,3.63
2022-08-16T01:25:12.312Z,4.63
2022-08-16T01:27:44.029Z,4.20
2022-08-16T01:30:20.447Z,4.60
2022-08-16T01:33:01.343Z,3.63
2022-08-16T01:35:44.597Z,4.00
2022-08-16T01:38:19.930Z,4.20
2022-08-16T01:40:52.263Z,5.00
2022-08-16T01:43:21.538Z,4.13
2022-08-16T01:45:57.796Z,3.83
2022-08-16T01:48:31.371Z,4.00
2022-08-16T01:51:09.657Z,3.60
2022-08-16T01:53:45.341Z,3.80
2022-08-16T01:56:25.890Z,4.07
2022-08-16T01:58:57.090Z,4.63
2022-08-16T02:01:26.239Z,4.30
2022-08-16T02:03:58.467Z,4.13
2022-08-16T02:06:45.884Z,4.03
2022-08-16T02:09:14.877Z,3.67
2022-08-16T02:11:53.361Z,3.63
2022-08-16T02:14:26.663Z,4.13
2022-08-16T02:16:56.519Z,4.10
2022-08-16T02:19:58.790Z,3.30
2022-08-16T02:22:33.874Z,3.60
2022-08-16T02:25:09.860Z,3.40
2022-08-16T02:27:40.887Z,3.50
2022-08-16T02:30:36.074Z,3.13
2022-08-16T02:33:04.026Z,3.87
2022-08-16T02:35:33.325Z,3.70
2022-08-16T02:38:08.347Z,3.03
2022-08-16T02:40:37.451Z,2.90
2022-08-16T02:43:07.610Z,3.40
2022-08-16T02:45:36.758Z,3.10
2022-08-16T02:48:30.635Z,3.60
2022-08-16T02:51:06.133Z,2.80
2022-08-16T02:53:43.253Z,2.87
2022-08-16T02:56:15.069Z,4.00
2022-08-16T02:58:45.605Z,5.30
2022-08-16T03:01:25.430Z,5.87
2022-08-16T03:04:39.998Z,4.53
2022-08-16T03:06:56.802Z,3.83
2022-08-16T03:09:28.678Z,3.60
2022-08-16T03:11:58.273Z,2.63
2022-08-16T03:14:30.565Z,3.73
2022-08-16T03:17:00.714Z,3.10
2022-08-16T03:19:47.654Z,2.60
2022-08-16T03:22:28.796Z,2.80
2022-08-16T03:25:02.040Z,2.60
2022-08-16T03:27:32.415Z,3.30
2022-08-16T03:30:16.432Z,3.00
2022-08-16T03:32:47.431Z,2.90
2022-08-16T03:35:17.647Z,2.43
2022-08-16T03:38:01.484Z,2.90
2022-08-16T03:40:31.728Z,2.90
2022-08-16T03:43:20.599Z,2.80
2022-08-16T03:45:52.712Z,3.30
2022-08-16T03:48:36.896Z,2.80
2022-08-16T03:51:12.063Z,2.63
2022-08-16T03:53:41.671Z,2.80
2022-08-16T03:56:19.578Z,3.10
2022-08-16T03:58:50.851Z,3.03
2022-08-16T04:01:23.328Z,2.57
2022-08-16T04:03:52.921Z,2.87
2022-08-16T04:06:23.429Z,3.10
2022-08-16T04:08:51.989Z,2.90
2022-08-16T04:11:23.639Z,2.70
2022-08-16T04:14:00.120Z,2.33
2022-08-16T04:16:38.790Z,3.30
2022-08-16T04:19:07.051Z,3.97
2022-08-16T04:21:47.244Z,4.80
2022-08-16T04:24:15.954Z,4.63
2022-08-16T04:26:46.510Z,3.80
2022-08-16T04:29:23.904Z,3.83
2022-08-16T04:31:57.939Z,4.20
2022-08-16T04:34:31.243Z,3.33
2022-08-16T04:37:01.448Z,3.07
2022-08-16T04:39:46.242Z,2.70
2022-08-16T04:42:16.391Z,3.10
2022-08-16T04:44:53.673Z,2.63
2022-08-16T04:47:32.967Z,2.97
2022-08-16T04:50:03.916Z,3.03
2022-08-16T04:52:35.823Z,2.60
2022-08-16T04:55:09.789Z,2.73
2022-08-16T04:57:41.287Z,3.03
2022-08-16T05:00:32.446Z,2.97
2022-08-16T05:03:07.618Z,2.67
2022-08-16T05:05:44.728Z,3.30
2022-08-16T05:08:29.700Z,2.70
2022-08-16T05:11:01.268Z,4.07
2022-08-16T05:13:40.753Z,4.20
2022-08-16T05:16:19.845Z,5.63
2022-08-16T05:18:51.208Z,5.60
2022-08-16T05:21:21.674Z,5.17
2022-08-16T05:23:55.427Z,5.97
2022-08-16T05:26:27.763Z,3.17
2022-08-16T05:28:57.050Z,3.03
2022-08-16T05:31:29.948Z,3.40
2022-08-16T05:34:03.020Z,3.00
2022-08-16T05:36:34.412Z,2.40
2022-08-16T05:39:06.654Z,3.73
2022-08-16T05:41:45.603Z,3.63
2022-08-16T05:44:23.902Z,3.00
2022-08-16T05:46:55.784Z,3.10
2022-08-16T05:49:38.318Z,2.40
2022-08-16T05:52:10.573Z,2.67
2022-08-16T05:54:46.009Z,2.53
2022-08-16T05:57:16.735Z,3.50
2022-08-16T05:59:47.468Z,3.20
2022-08-16T06:02:28.913Z,2.77
2022-08-16T06:05:02.307Z,4.20
2022-08-16T06:07:32.859Z,6.30
2022-08-16T06:10:01.549Z,7.10
2022-08-16T06:12:31.048Z,4.30
2022-08-16T06:15:01.855Z,3.70
2022-08-16T06:17:42.833Z,3.40
2022-08-16T06:20:18.567Z,3.03
2022-08-16T06:22:58.781Z,3.40
2022-08-16T06:25:36.643Z,3.00
2022-08-16T06:28:10.074Z,2.57
2022-08-16T06:30:43.954Z,2.70
2022-08-16T06:33:22.111Z,2.67
2022-08-16T06:35:54.972Z,2.70
2022-08-16T06:38:32.728Z,3.77
2022-08-16T06:41:04.956Z,3.07
2022-08-16T06:43:34.585Z,2.30
2022-08-16T06:46:10.751Z,2.50
2022-08-16T06:48:43.171Z,3.70
2022-08-16T06:51:14.862Z,3.20
2022-08-16T06:53:43.286Z,3.00
2022-08-16T06:56:14.648Z,3.03
2022-08-16T06:58:52.651Z,2.80
2022-08-16T07:01:43.367Z,2.10
2022-08-16T07:04:12.073Z,2.57
2022-08-16T07:06:43.597Z,3.10
2022-08-16T07:09:15.883Z,3.00
2022-08-16T07:11:47.970Z,2.50
2022-08-16T07:14:24.198Z,2.70
2022-08-16T07:16:54.024Z,2.13
2022-08-16T07:19:23.125Z,2.63
2022-08-16T07:22:38.385Z,2.67
2022-08-16T07:25:01.253Z,2.80
2022-08-16T07:27:32.142Z,2.27
2022-08-16T07:30:02.393Z,2.87
2022-08-16T07:32:32.893Z,2.73
2022-08-16T07:35:03.265Z,2.53
2022-08-16T07:37:32.871Z,2.77
2022-08-16T07:40:01.299Z,2.60
2022-08-16T07:42:39.503Z,2.93
2022-08-16T07:45:10.144Z,3.13
2022-08-16T07:47:38.783Z,3.10
2022-08-16T07:50:56.830Z,3.23
2022-08-16T07:53:01.932Z,2.87
2022-08-16T07:55:45.517Z,3.30
2022-08-16T07:58:18.390Z,3.33
2022-08-16T08:01:10.166Z,3.00
2022-08-16T08:03:47.621Z,3.33
2022-08-16T08:06:18.272Z,3.00
2022-08-16T08:08:52.748Z,3.47
2022-08-16T08:11:28.779Z,2.80
2022-08-16T08:14:03.609Z,3.13
2022-08-16T08:16:32.832Z,2.83
2022-08-16T08:19:02.582Z,2.93
2022-08-16T08:21:58.461Z,2.57
2022-08-16T08:24:31.839Z,3.27
2022-08-16T08:27:02.176Z,3.13
2022-08-16T08:29:37.696Z,3.07
2022-08-16T08:32:58.178Z,2.57
2022-08-16T08:35:00.368Z,3.40
2022-08-16T08:37:55.039Z,3.33
2022-08-16T08:40:24.733Z,3.37
2022-08-16T08:43:00.457Z,3.67
2022-08-16T08:45:48.574Z,3.23
2022-08-16T08:48:32.944Z,2.87
2022-08-16T08:51:08.720Z,3.33
2022-08-16T08:53:37.888Z,3.23
2022-08-16T08:56:22.984Z,3.50
2022-08-16T08:58:53.679Z,3.13
2022-08-16T09:01:31.708Z,2.90
2022-08-16T09:04:06.114Z,3.37
2022-08-16T09:06:35.045Z,3.20
2022-08-16T09:09:04.357Z,3.23
2022-08-16T09:11:41.122Z,3.00
2022-08-16T09:14:24.717Z,3.17
2022-08-16T09:17:01.646Z,3.27
2022-08-16T09:19:33.910Z,3.27
2022-08-16T09:22:02.457Z,3.23
2022-08-16T09:24:48.813Z,3.30
2022-08-16T09:27:20.472Z,2.70
2022-08-16T09:29:49.209Z,3.10
2022-08-16T09:32:30.898Z,3.10
2022-08-16T09:34:59.661Z,3.63
2022-08-16T09:37:29.824Z,3.67
2022-08-16T09:39:59.460Z,3.63
2022-08-16T09:42:30.374Z,3.20
2022-08-16T09:45:18.796Z,3.30
2022-08-16T09:47:56.093Z,3.30
2022-08-16T09:50:37.003Z,3.30
2022-08-16T09:53:16.793Z,3.23
2022-08-16T09:55:49.422Z,3.43
2022-08-16T09:58:40.832Z,3.40
2022-08-16T10:01:11.165Z,3.43
2022-08-16T10:04:02.482Z,3.03
2022-08-16T10:06:33.474Z,3.00
2022-08-16T10:09:05.551Z,3.67
2022-08-16T10:11:52.551Z,3.93
2022-08-16T10:14:24.962Z,3.33
2022-08-16T10:17:03.491Z,3.60
2022-08-16T10:19:32.566Z,3.80
2022-08-16T10:22:04.977Z,3.03
2022-08-16T10:24:36.323Z,3.00
2022-08-16T10:27:26.544Z,3.00
2022-08-16T10:30:00.129Z,3.43
2022-08-16T10:32:31.991Z,3.60
2022-08-16T10:35:02.129Z,4.13
2022-08-16T10:37:35.818Z,3.70
2022-08-16T10:40:06.569Z,3.53
2022-08-16T10:42:54.658Z,3.20
2022-08-16T10:45:25.471Z,3.90
2022-08-16T10:48:03.421Z,3.33
2022-08-16T10:50:33.748Z,3.80
2022-08-16T10:53:07.508Z,3.23
2022-08-16T10:55:41.000Z,3.47
2022-08-16T10:58:17.401Z,3.27
2022-08-16T11:00:54.237Z,3.10
2022-08-16T11:03:44.562Z,3.67
2022-08-16T11:06:14.499Z,3.57
2022-08-16T11:08:45.769Z,4.43
2022-08-16T11:11:19.683Z,3.13
2022-08-16T11:14:11.026Z,3.07
2022-08-16T11:19:30.262Z,3.60
2022-08-16T11:22:38.658Z,3.40
2022-08-16T11:25:11.460Z,3.20
2022-08-16T11:27:47.190Z,3.60
2022-08-16T11:30:19.859Z,3.70
2022-08-16T11:32:50.023Z,3.30
2022-08-16T11:35:43.412Z,2.93
2022-08-16T11:38:47.424Z,6.03
2022-08-16T11:41:03.462Z,5.37
2022-08-16T11:43:34.143Z,4.00
2022-08-16T11:46:34.228Z,3.00
2022-08-16T11:48:54.911Z,4.37
2022-08-16T11:51:24.293Z,4.10
2022-08-16T11:53:53.142Z,2.80
2022-08-16T11:56:39.596Z,3.37
2022-08-16T11:59:10.443Z,2.60
2022-08-16T12:01:44.565Z,3.33
2022-08-16T12:04:25.796Z,3.40
2022-08-16T12:06:54.760Z,3.03
2022-08-16T12:09:24.859Z,3.23
2022-08-16T12:11:58.370Z,3.47
2022-08-16T12:14:35.338Z,4.50
2022-08-16T12:17:06.162Z,4.37
2022-08-16T12:19:38.298Z,3.20
2022-08-16T12:22:19.075Z,2.87
2022-08-16T12:24:52.250Z,4.10
2022-08-16T12:27:24.342Z,4.17
2022-08-16T12:29:52.919Z,4.17
2022-08-16T12:32:35.891Z,6.70
2022-08-16T12:35:10.646Z,7.13
2022-08-16T12:37:38.995Z,5.30
2022-08-16T12:40:24.724Z,6.53
2022-08-16T12:42:58.464Z,4.83
2022-08-16T12:45:29.005Z,4.37
2022-08-16T12:48:33.728Z,3.10
2022-08-16T12:51:10.891Z,3.20
2022-08-16T12:53:47.777Z,3.93
2022-08-16T12:56:19.419Z,5.57
2022-08-16T12:58:51.973Z,6.70
2022-08-16T13:01:22.697Z,7.00
2022-08-16T13:04:08.195Z,5.40
2022-08-16T13:06:42.236Z,4.20
2022-08-16T13:09:23.407Z,3.47
2022-08-16T13:12:00.415Z,3.43
2022-08-16T13:14:32.892Z,4.27
2022-08-16T13:17:02.996Z,3.77
2022-08-16T13:19:56.291Z,2.77
2022-08-16T13:22:24.294Z,3.03
2022-08-16T13:24:53.337Z,3.47
2022-08-16T13:27:59.378Z,3.80
2022-08-16T13:30:11.500Z,4.23
2022-08-16T13:32:59.793Z,4.00
2022-08-16T13:35:34.373Z,3.50
2022-08-16T13:38:04.173Z,3.83
2022-08-16T13:40:34.502Z,3.70
2022-08-16T13:43:03.192Z,3.93
2022-08-16T13:45:36.305Z,3.07
2022-08-16T13:48:06.596Z,3.60
2022-08-16T13:50:49.248Z,3.10
2022-08-16T13:53:24.362Z,3.33
2022-08-16T13:55:57.815Z,3.30
2022-08-16T13:58:36.450Z,3.57
2022-08-16T14:01:09.666Z,3.10
2022-08-16T14:03:39.847Z,2.87
2022-08-16T14:06:10.601Z,3.20
2022-08-16T14:08:41.974Z,3.30
2022-08-16T14:11:12.183Z,3.37
2022-08-16T14:13:40.781Z,3.40
2022-08-16T14:16:23.456Z,3.20
2022-08-16T14:18:53.054Z,3.67
2022-08-16T14:21:22.051Z,3.47
2022-08-16T14:23:53.551Z,3.07
2022-08-16T14:26:21.753Z,3.47
2022-08-16T14:28:53.282Z,3.33
2022-08-16T14:31:23.619Z,3.00
2022-08-16T14:33:51.861Z,3.83
2022-08-16T14:36:29.419Z,2.77
2022-08-16T14:38:59.906Z,3.60
2022-08-16T14:41:28.436Z,2.87
2022-08-16T14:43:56.805Z,3.10
2022-08-16T14:46:25.092Z,3.43
2022-08-16T14:48:54.086Z,3.27
2022-08-16T14:51:23.257Z,2.80
2022-08-16T14:53:56.882Z,2.80
2022-08-16T14:56:43.085Z,3.30
2022-08-16T14:59:14.953Z,2.03
2022-08-16T15:01:58.920Z,2.50
2022-08-16T15:04:40.518Z,2.77
2022-08-16T15:07:17.806Z,2.67
2022-08-16T15:10:00.525Z,3.30
2022-08-16T15:12:33.521Z,2.97
2022-08-16T15:15:04.621Z,2.60
2022-08-16T15:17:41.240Z,3.00
2022-08-16T15:20:11.324Z,2.80
2022-08-16T15:22:41.601Z,3.23
2022-08-16T15:25:13.353Z,2.30
2022-08-16T15:27:54.860Z,2.70
2022-08-16T15:30:58.411Z,3.07
2022-08-16T15:33:16.939Z,2.93
2022-08-16T15:35:46.320Z,2.60
2022-08-16T15:38:54.906Z,2.90
2022-08-16T15:41:03.809Z,2.90
2022-08-16T15:43:38.872Z,2.73
2022-08-16T15:46:55.868Z,2.30
2022-08-16T15:49:15.532Z,3.10
2022-08-16T15:51:46.120Z,5.83
2022-08-16T15:54:20.913Z,3.40
2022-08-16T15:57:09.633Z,3.27
2022-08-16T15:59:49.207Z,2.17
2022-08-16T16:02:29.683Z,2.67
2022-08-16T16:05:01.716Z,2.57
2022-08-16T16:07:33.223Z,2.90
2022-08-16T16:10:02.792Z,2.73
2022-08-16T16:12:51.126Z,2.20
2022-08-16T16:15:22.876Z,2.67
2022-08-16T16:17:53.136Z,2.80
2022-08-16T16:20:24.338Z,2.70
2022-08-16T16:22:53.553Z,2.10
2022-08-16T16:25:21.742Z,2.90
2022-08-16T16:27:55.923Z,3.40
2022-08-16T16:30:37.274Z,3.07
2022-08-16T16:33:15.639Z,3.03
2022-08-16T16:35:55.663Z,6.90
2022-08-16T16:38:30.775Z,7.43
2022-08-16T16:41:04.798Z,8.33
2022-08-16T16:43:40.500Z,13.47
2022-08-16T16:46:43.039Z,10.63
2022-08-16T16:49:03.017Z,5.53
2022-08-16T16:51:32.461Z,4.80
2022-08-16T16:54:12.824Z,3.03
2022-08-16T16:56:46.111Z,4.60
2022-08-16T16:59:19.959Z,5.10
2022-08-16T17:01:57.813Z,3.30
2022-08-16T17:04:39.143Z,6.97
2022-08-16T17:07:11.134Z,7.60
2022-08-16T17:09:41.029Z,6.13
2022-08-16T17:12:10.256Z,6.83
2022-08-16T17:14:48.351Z,11.00
2022-08-16T17:17:17.956Z,15.40
2022-08-16T17:19:46.122Z,20.30
2022-08-16T17:22:19.892Z,20.20
2022-08-16T17:24:50.776Z,25.00
2022-08-16T17:27:33.141Z,9.80
2022-08-16T17:30:15.903Z,4.37
2022-08-16T17:32:50.649Z,4.53
2022-08-16T17:35:33.768Z,4.30
2022-08-16T17:38:07.247Z,5.13
2022-08-16T17:40:47.450Z,3.63
2022-08-16T17:43:27.999Z,3.73
2022-08-16T17:45:57.772Z,5.83
2022-08-16T17:48:27.623Z,8.90
2022-08-16T17:50:55.879Z,20.60
2022-08-16T17:53:24.401Z,16.70
2022-08-16T17:55:54.649Z,16.97
2022-08-16T17:58:24.371Z,13.27
2022-08-16T18:00:54.797Z,12.27
2022-08-16T18:03:40.812Z,11.37
2022-08-16T18:06:18.556Z,9.23
2022-08-16T18:08:52.178Z,12.20
2022-08-16T18:11:26.480Z,12.20
2022-08-16T18:13:55.560Z,11.37
2022-08-16T18:16:24.269Z,6.40
2022-08-16T18:18:52.539Z,5.90
2022-08-16T18:21:39.963Z,8.50
2022-08-16T18:24:08.870Z,5.50
2022-08-16T18:26:37.419Z,4.70
2022-08-16T18:29:06.003Z,3.90
2022-08-16T18:31:34.172Z,3.47
2022-08-16T18:34:02.820Z,4.37
2022-08-16T18:36:33.427Z,3.40
2022-08-16T18:39:02.036Z,2.40
2022-08-16T18:41:30.539Z,4.10
2022-08-16T18:44:25.686Z,4.57
2022-08-16T18:46:50.975Z,6.33
2022-08-16T18:49:20.192Z,5.00
2022-08-16T18:51:50.967Z,6.30
2022-08-16T18:54:19.360Z,5.70
2022-08-16T18:56:54.224Z,5.50
2022-08-16T18:59:26.900Z,6.33
2022-08-16T19:01:55.484Z,6.90
2022-08-16T19:04:49.027Z,3.80
2022-08-16T19:07:18.952Z,4.00
2022-08-16T19:09:47.237Z,3.60
2022-08-16T19:12:15.909Z,3.67
2022-08-16T19:14:45.507Z,3.97
2022-08-16T19:17:16.122Z,5.10
2022-08-16T19:19:46.768Z,5.33
2022-08-16T19:22:14.979Z,6.63
2022-08-16T19:24:44.536Z,6.17
2022-08-16T19:27:13.953Z,6.47
2022-08-16T19:29:42.405Z,5.80
2022-08-16T19:32:18.261Z,6.37
2022-08-16T19:34:46.646Z,5.80
2022-08-16T19:37:14.824Z,5.20
2022-08-16T19:39:44.532Z,4.30
2022-08-16T19:42:16.843Z,4.00
2022-08-16T19:44:46.807Z,3.23
2022-08-16T19:47:15.177Z,4.13
2022-08-16T19:49:43.679Z,5.80
2022-08-16T19:52:14.704Z,7.37
2022-08-16T19:54:44.601Z,8.70
2022-08-16T19:57:13.528Z,10.27
2022-08-16T19:59:45.063Z,10.33
2022-08-16T20:02:32.634Z,9.50
2022-08-16T20:05:06.041Z,8.10
2022-08-16T20:07:34.303Z,7.70
2022-08-16T20:10:04.916Z,5.93
2022-08-16T20:12:36.187Z,5.10
2022-08-16T20:15:04.681Z,4.60
2022-08-16T20:17:32.939Z,4.30
2022-08-16T20:20:01.244Z,3.80
2022-08-16T20:22:52.344Z,3.53
2022-08-16T20:25:29.846Z,5.00
2022-08-16T20:27:59.730Z,5.27
2022-08-16T20:30:28.285Z,6.30
2022-08-16T20:32:56.492Z,7.63
2022-08-16T20:35:27.442Z,7.17
2022-08-16T20:37:55.988Z,8.60
2022-08-16T20:40:35.094Z,11.23
2022-08-16T20:43:07.239Z,10.10
2022-08-16T20:45:35.836Z,9.97
2022-08-16T20:48:04.991Z,7.97
2022-08-16T20:50:33.584Z,7.43
2022-08-16T20:53:01.905Z,6.50
2022-08-16T20:55:31.612Z,6.30
2022-08-16T20:58:00.261Z,5.93
2022-08-16T21:00:29.093Z,5.80
2022-08-16T21:02:58.533Z,4.77
2022-08-16T21:05:31.332Z,4.53
2022-08-16T21:08:00.854Z,4.63
2022-08-16T21:10:29.104Z,4.40
2022-08-16T21:13:02.684Z,4.40
2022-08-16T21:15:32.823Z,6.00
2022-08-16T21:18:01.646Z,4.40
2022-08-16T21:20:29.821Z,5.00
2022-08-16T21:22:59.726Z,6.20
2022-08-16T21:25:28.110Z,3.80
2022-08-16T21:28:41.348Z,4.10
2022-08-16T21:30:47.967Z,4.57
2022-08-16T21:33:17.642Z,4.80
2022-08-16T21:35:47.382Z,6.10
2022-08-16T21:38:29.053Z,6.57
2022-08-16T21:40:59.060Z,7.00
2022-08-16T21:43:32.021Z,4.97
2022-08-16T21:46:00.866Z,4.97
2022-08-16T21:48:35.195Z,4.90
2022-08-16T21:51:05.375Z,5.57
2022-08-16T21:53:33.671Z,4.23
2022-08-16T21:56:01.956Z,7.43
2022-08-16T21:58:31.939Z,5.63
2022-08-16T22:01:00.613Z,5.80
2022-08-16T22:03:30.082Z,4.13
2022-08-16T22:06:11.075Z,4.00
2022-08-16T22:08:48.800Z,3.83
2022-08-16T22:11:22.288Z,4.10
2022-08-16T22:13:58.823Z,2.87
2022-08-16T22:16:30.238Z,4.30
2022-08-16T22:18:58.515Z,4.70
2022-08-16T22:21:26.750Z,5.73
2022-08-16T22:23:57.953Z,7.60
2022-08-16T22:26:29.150Z,11.03
2022-08-16T22:29:01.228Z,8.53
2022-08-16T22:31:29.552Z,10.60
2022-08-16T22:33:58.025Z,10.37
2022-08-16T22:36:27.930Z,7.90
2022-08-16T22:38:58.668Z,8.30
2022-08-16T22:41:31.215Z,7.80
2022-08-16T22:44:01.223Z,6.43
2022-08-16T22:46:30.377Z,5.77
2022-08-16T22:48:59.017Z,4.67
2022-08-16T22:51:28.787Z,4.23
2022-08-16T22:53:57.511Z,3.60
2022-08-16T22:56:26.272Z,4.00
2022-08-16T22:58:54.527Z,10.83
2022-08-16T23:01:25.938Z,9.70
2022-08-16T23:03:55.356Z,16.73
2022-08-16T23:06:24.176Z,15.63
2022-08-16T23:08:52.502Z,13.93
2022-08-16T23:11:23.052Z,9.57
2022-08-16T23:13:53.732Z,6.30
2022-08-16T23:16:32.507Z,6.40
2022-08-16T23:19:02.478Z,6.27
2022-08-16T23:21:30.642Z,6.33
2022-08-16T23:23:58.829Z,7.00
2022-08-16T23:26:44.974Z,6.40
2022-08-16T23:29:23.475Z,6.53
2022-08-16T23:31:58.273Z,5.70
2022-08-16T23:34:27.932Z,5.40
2022-08-16T23:36:56.332Z,6.30
2022-08-16T23:39:24.950Z,7.10
2022-08-16T23:41:53.243Z,6.10
2022-08-16T23:44:55.060Z,8.27
2022-08-16T23:47:11.011Z,8.60
2022-08-16T23:49:58.105Z,7.27
2022-08-16T23:52:54.738Z,9.07
2022-08-16T23:55:16.268Z,7.67
2022-08-16T23:57:45.170Z,5.73
